createdAt,value
2023-04-11T00:01:40.079Z,100.00
2023-04-11T00:04:42.900Z,100.00
2023-04-11T00:07:45.686Z,100.00
2023-04-11T00:10:48.286Z,100.00
2023-04-11T00:13:50.873Z,100.00
2023-04-11T00:16:54.930Z,100.00
2023-04-11T00:19:57.784Z,100.00
2023-04-11T00:23:00.403Z,100.00
2023-04-11T00:26:03.123Z,100.00
2023-04-11T00:29:05.786Z,100.00
2023-04-11T00:32:09.794Z,100.00
2023-04-11T00:35:12.422Z,100.00
2023-04-11T00:38:15.104Z,100.00
2023-04-11T00:41:17.689Z,100.00
2023-04-11T00:44:20.330Z,100.00
2023-04-11T00:47:24.385Z,100.00
2023-04-11T00:50:27.427Z,100.00
2023-04-11T00:53:32.745Z,100.00
2023-04-11T00:56:35.386Z,100.00
2023-04-11T00:59:38.222Z,100.00
2023-04-11T01:02:45.089Z,100.00
2023-04-11T01:05:49.648Z,100.00
2023-04-11T01:08:52.460Z,100.00
2023-04-11T01:11:56.095Z,100.00
2023-04-11T01:14:59.340Z,100.00
2023-04-11T01:18:03.502Z,100.00
2023-04-11T01:21:06.554Z,100.00
2023-04-11T01:24:11.551Z,100.00
2023-04-11T01:27:14.135Z,100.00
2023-04-11T01:30:17.199Z,100.00
2023-04-11T01:33:20.330Z,100.00
2023-04-11T01:36:22.968Z,100.00
2023-04-11T01:39:27.017Z,100.00
2023-04-11T01:42:31.513Z,100.00
2023-04-11T01:45:34.129Z,100.00
2023-04-11T01:48:36.840Z,100.00
2023-04-11T01:51:39.510Z,100.00
2023-04-11T01:54:43.468Z,100.00
2023-04-11T01:57:46.048Z,100.00
2023-04-11T02:00:48.619Z,100.00
2023-04-11T02:03:51.314Z,100.00
2023-04-11T02:06:53.932Z,100.00
2023-04-11T02:09:58.266Z,100.00
2023-04-11T02:13:00.863Z,100.00
2023-04-11T02:16:15.112Z,100.00
2023-04-11T02:19:18.100Z,100.00
2023-04-11T02:22:20.666Z,100.00
2023-04-11T02:25:24.622Z,100.00
2023-04-11T02:28:27.198Z,100.00
2023-04-11T02:31:29.903Z,100.00
2023-04-11T02:34:32.543Z,100.00
2023-04-11T02:37:35.708Z,100.00
2023-04-11T02:40:39.695Z,100.00
2023-04-11T02:43:42.270Z,100.00
2023-04-11T02:46:44.918Z,100.00
2023-04-11T02:49:47.506Z,100.00
2023-04-11T02:52:50.191Z,100.00
2023-04-11T02:55:54.144Z,100.00
2023-04-11T02:58:56.878Z,100.00
2023-04-11T03:02:00.541Z,100.00
2023-04-11T03:05:04.095Z,100.00
2023-04-11T03:08:08.747Z,100.00
2023-04-11T03:11:12.673Z,100.00
2023-04-11T03:14:15.352Z,100.00
2023-04-11T03:17:17.938Z,100.00
2023-04-11T03:20:20.903Z,100.00
2023-04-11T03:23:23.490Z,100.00
2023-04-11T03:26:27.792Z,100.00
2023-04-11T03:29:30.390Z,100.00
2023-04-11T03:32:33.041Z,100.00
2023-04-11T03:35:36.311Z,100.00
2023-04-11T03:38:39.003Z,100.00
2023-04-11T03:41:42.963Z,100.00
2023-04-11T03:44:45.556Z,100.00
2023-04-11T03:47:48.178Z,100.00
2023-04-11T03:50:50.807Z,100.00
2023-04-11T03:53:53.459Z,100.00
2023-04-11T03:56:57.999Z,100.00
2023-04-11T04:00:00.960Z,100.00
2023-04-11T04:03:03.885Z,100.00
2023-04-11T04:06:07.728Z,100.00
2023-04-11T04:09:10.340Z,100.00
2023-04-11T04:12:14.361Z,100.00
2023-04-11T04:15:17.041Z,100.00
2023-04-11T04:18:19.674Z,100.00
2023-04-11T04:21:22.251Z,100.00
2023-04-11T04:24:25.940Z,100.00
2023-04-11T04:27:29.919Z,100.00
2023-04-11T04:30:32.601Z,100.00
2023-04-11T04:33:35.196Z,100.00
2023-04-11T04:36:46.479Z,100.00
2023-04-11T04:39:54.043Z,100.00
2023-04-11T04:42:59.099Z,100.00
2023-04-11T04:46:01.741Z,100.00
2023-04-11T04:49:05.396Z,100.00
2023-04-11T04:52:07.986Z,100.00
2023-04-11T04:55:10.612Z,100.00
2023-04-11T04:58:14.551Z,100.00
2023-04-11T05:01:17.630Z,100.00
2023-04-11T05:04:20.730Z,100.00
2023-04-11T05:07:23.480Z,100.00
2023-04-11T05:10:26.173Z,100.00
2023-04-11T05:13:30.214Z,100.00
2023-04-11T05:16:32.920Z,100.00
2023-04-11T05:19:35.690Z,100.00
2023-04-11T05:22:38.594Z,100.00
2023-04-11T05:25:41.179Z,100.00
2023-04-11T05:28:45.174Z,100.00
2023-04-11T05:31:47.770Z,100.00
2023-04-11T05:34:57.313Z,100.00
2023-04-11T05:38:00.928Z,100.00
2023-04-11T05:41:03.524Z,100.00
2023-04-11T05:44:07.476Z,100.00
2023-04-11T05:47:11.567Z,100.00
2023-04-11T05:50:15.694Z,100.00
2023-04-11T05:53:18.591Z,100.00
2023-04-11T05:56:21.192Z,100.00
2023-04-11T05:59:27.709Z,100.00
2023-04-11T06:02:31.655Z,100.00
2023-04-11T06:05:34.926Z,100.00
2023-04-11T06:08:37.518Z,100.00
2023-04-11T06:11:40.163Z,100.00
2023-04-11T06:14:44.103Z,100.00
2023-04-11T06:17:46.756Z,100.00
2023-04-11T06:20:49.640Z,100.00
2023-04-11T06:23:52.235Z,100.00
2023-04-11T06:26:54.828Z,100.00
2023-04-11T06:29:58.738Z,100.00
2023-04-11T06:33:01.348Z,100.00
2023-04-11T06:36:06.096Z,100.00
2023-04-11T06:39:09.744Z,100.00
2023-04-11T06:42:12.396Z,100.00
2023-04-11T06:45:16.454Z,100.00
2023-04-11T06:48:20.893Z,100.00
2023-04-11T06:51:23.637Z,100.00
2023-04-11T06:54:26.565Z,100.00
2023-04-11T06:57:29.197Z,100.00
2023-04-11T07:00:33.142Z,100.00
2023-04-11T07:03:36.967Z,100.00
2023-04-11T07:06:39.759Z,100.00
2023-04-11T07:09:43.401Z,100.00
2023-04-11T07:12:45.971Z,100.00
2023-04-11T07:15:49.960Z,100.00
2023-04-11T07:18:52.597Z,100.00
2023-04-11T07:21:56.691Z,100.00
2023-04-11T07:24:59.730Z,100.00
2023-04-11T07:28:02.327Z,100.00
2023-04-11T07:31:07.935Z,100.00
2023-04-11T07:34:10.696Z,100.00
2023-04-11T07:37:13.302Z,100.00
2023-04-11T07:40:15.872Z,100.00
2023-04-11T07:43:18.464Z,100.00
2023-04-11T07:46:22.407Z,100.00
2023-04-11T07:49:24.996Z,100.00
2023-04-11T07:52:27.605Z,100.00
2023-04-11T07:55:30.232Z,100.00
2023-04-11T07:58:32.992Z,100.00
2023-04-11T08:01:36.961Z,100.00
2023-04-11T08:04:39.805Z,100.00
2023-04-11T08:07:42.825Z,100.00
2023-04-11T08:10:45.608Z,100.00
2023-04-11T08:13:48.226Z,100.00
2023-04-11T08:16:53.347Z,100.00
2023-04-11T08:19:57.290Z,100.00
2023-04-11T08:23:00.516Z,100.00
2023-04-11T08:26:03.160Z,100.00
2023-04-11T08:29:05.800Z,100.00
2023-04-11T08:32:09.717Z,100.00
2023-04-11T08:35:12.422Z,100.00
2023-04-11T08:38:15.148Z,100.00
2023-04-11T08:41:18.120Z,100.00
2023-04-11T08:44:21.242Z,100.00
2023-04-11T08:47:26.147Z,100.00
2023-04-11T08:50:28.776Z,100.00
2023-04-11T08:53:32.033Z,100.00
2023-04-11T08:56:34.996Z,100.00
2023-04-11T08:59:37.626Z,100.00
2023-04-11T09:02:59.715Z,100.00
2023-04-11T09:06:11.096Z,100.00
2023-04-11T09:09:30.170Z,100.00
2023-04-11T09:12:33.085Z,100.00
2023-04-11T09:15:35.978Z,100.00
2023-04-11T09:18:42.336Z,100.00
2023-04-11T09:21:50.753Z,100.00
2023-04-11T09:25:03.509Z,100.00
2023-04-11T09:28:10.696Z,100.00
2023-04-11T09:31:14.013Z,100.00
2023-04-11T09:34:25.922Z,100.00
2023-04-11T09:37:28.594Z,100.00
2023-04-11T09:40:31.920Z,100.00
2023-04-11T09:43:50.351Z,100.00
2023-04-11T09:46:59.512Z,100.00
2023-04-11T09:50:04.369Z,100.00
2023-04-11T09:53:07.641Z,100.00
2023-04-11T09:56:11.092Z,100.00
2023-04-11T09:59:15.538Z,100.00
2023-04-11T10:02:18.191Z,100.00
2023-04-11T10:05:27.403Z,100.00
2023-04-11T10:08:32.688Z,100.00
2023-04-11T10:11:35.652Z,100.00
2023-04-11T10:14:45.993Z,100.00
2023-04-11T10:18:10.269Z,100.00
2023-04-11T10:21:42.603Z,100.00
2023-04-11T10:25:17.955Z,100.00
2023-04-11T10:28:35.384Z,100.00
2023-04-11T10:32:01.945Z,100.00
2023-04-11T10:35:31.430Z,100.00
2023-04-11T10:38:51.389Z,100.00
2023-04-11T10:41:54.186Z,100.00
2023-04-11T10:45:17.987Z,100.00
2023-04-11T10:48:20.609Z,100.00
2023-04-11T10:51:27.696Z,100.00
2023-04-11T10:54:31.673Z,100.00
2023-04-11T10:58:07.164Z,100.00
2023-04-11T11:01:31.384Z,100.00
2023-04-11T11:04:41.194Z,100.00
2023-04-11T11:07:47.697Z,100.00
2023-04-11T11:10:51.633Z,100.00
2023-04-11T11:13:55.907Z,100.00
2023-04-11T11:16:58.980Z,100.00
2023-04-11T11:20:01.582Z,100.00
2023-04-11T11:23:05.853Z,100.00
2023-04-11T11:26:09.784Z,100.00
2023-04-11T11:29:13.196Z,100.00
2023-04-11T11:32:22.728Z,100.00
2023-04-11T11:35:25.878Z,100.00
2023-04-11T11:38:30.247Z,100.00
2023-04-11T11:41:35.968Z,100.00
2023-04-11T11:44:38.955Z,100.00
2023-04-11T11:47:45.440Z,100.00
2023-04-11T11:50:48.290Z,100.00
2023-04-11T11:54:04.558Z,100.00
2023-04-11T11:57:08.615Z,100.00
2023-04-11T12:00:13.075Z,100.00
2023-04-11T12:03:20.969Z,100.00
2023-04-11T12:06:24.169Z,100.00
2023-04-11T12:09:31.606Z,100.00
2023-04-11T12:12:37.348Z,100.00
2023-04-11T12:15:41.832Z,100.00
2023-04-11T12:18:45.885Z,100.00
2023-04-11T12:21:48.539Z,100.00
2023-04-11T12:24:53.018Z,100.00
2023-04-11T12:27:57.042Z,100.00
2023-04-11T12:30:59.724Z,100.00
2023-04-11T12:34:02.480Z,100.00
2023-04-11T12:37:05.131Z,100.00
2023-04-11T12:40:10.926Z,100.00
2023-04-11T12:43:15.444Z,98.43
2023-04-11T12:46:18.706Z,94.51
2023-04-11T12:49:21.439Z,93.97
2023-04-11T12:52:25.251Z,92.72
2023-04-11T12:55:28.636Z,88.89
2023-04-11T12:58:33.022Z,89.87
2023-04-11T13:01:36.794Z,88.78
2023-04-11T13:04:39.704Z,89.31
2023-04-11T13:07:42.668Z,91.77
2023-04-11T13:10:45.317Z,91.26
2023-04-11T13:13:49.889Z,90.58
2023-04-11T13:16:52.537Z,92.64
2023-04-11T13:19:55.243Z,93.66
2023-04-11T13:22:57.849Z,96.11
2023-04-11T13:26:01.500Z,98.03
2023-04-11T13:29:05.515Z,98.56
2023-04-11T13:32:08.162Z,98.34
2023-04-11T13:35:11.338Z,97.26
2023-04-11T13:38:13.998Z,99.41
2023-04-11T13:41:16.628Z,98.11
2023-04-11T13:44:21.723Z,97.55
2023-04-11T13:47:24.378Z,96.84
2023-04-11T13:50:27.141Z,95.17
2023-04-11T13:53:29.762Z,99.39
2023-04-11T13:56:32.372Z,98.60
2023-04-11T13:59:36.473Z,95.68
2023-04-11T14:02:39.866Z,96.09
2023-04-11T14:05:42.734Z,97.02
2023-04-11T14:08:45.363Z,97.54
2023-04-11T14:11:48.003Z,100.00
2023-04-11T14:14:52.014Z,100.00
2023-04-11T14:17:54.772Z,100.00
2023-04-11T14:20:58.376Z,100.00
2023-04-11T14:24:02.157Z,100.00
2023-04-11T14:27:05.020Z,100.00
2023-04-11T14:30:10.392Z,100.00
2023-04-11T14:33:13.205Z,100.00
2023-04-11T14:36:16.083Z,100.00
2023-04-11T14:39:19.188Z,100.00
2023-04-11T14:42:21.857Z,100.00
2023-04-11T14:45:26.123Z,100.00
2023-04-11T14:48:28.820Z,100.00
2023-04-11T14:51:31.621Z,100.00
2023-04-11T14:54:34.308Z,100.00
2023-04-11T14:57:45.620Z,100.00
2023-04-11T15:00:49.621Z,100.00
2023-04-11T15:03:52.267Z,100.00
2023-04-11T15:06:54.979Z,100.00
2023-04-11T15:09:57.615Z,100.00
2023-04-11T15:13:00.314Z,100.00
2023-04-11T15:16:04.536Z,100.00
2023-04-11T15:19:08.949Z,100.00
2023-04-11T15:22:11.600Z,100.00
2023-04-11T15:25:16.365Z,100.00
2023-04-11T15:28:19.565Z,100.00
2023-04-11T15:31:27.198Z,100.00
2023-04-11T15:34:29.989Z,100.00
2023-04-11T15:37:32.734Z,100.00
2023-04-11T15:40:35.411Z,100.00
2023-04-11T15:43:38.642Z,100.00
2023-04-11T15:46:42.734Z,100.00
2023-04-11T15:49:45.411Z,100.00
2023-04-11T15:52:48.102Z,100.00
2023-04-11T15:55:51.244Z,100.00
2023-04-11T15:58:53.917Z,100.00
2023-04-11T16:01:58.028Z,100.00
2023-04-11T16:05:01.304Z,100.00
2023-04-11T16:08:04.620Z,100.00
2023-04-11T16:11:07.887Z,100.00
2023-04-11T16:14:11.235Z,100.00
2023-04-11T16:17:15.380Z,100.00
2023-04-11T16:20:21.214Z,100.00
2023-04-11T16:23:24.511Z,100.00
2023-04-11T16:26:27.176Z,100.00
2023-04-11T16:29:29.948Z,100.00
2023-04-11T16:32:34.022Z,100.00
2023-04-11T16:35:36.821Z,100.00
2023-04-11T16:38:39.683Z,100.00
2023-04-11T16:41:42.337Z,100.00
2023-04-11T16:44:45.283Z,100.00
2023-04-11T16:47:49.391Z,100.00
2023-04-11T16:50:52.498Z,100.00
2023-04-11T16:53:55.287Z,100.00
2023-04-11T16:56:58.010Z,100.00
2023-04-11T17:00:00.780Z,100.00
2023-04-11T17:03:05.677Z,100.00
2023-04-11T17:06:13.513Z,100.00
2023-04-11T17:09:17.485Z,100.00
2023-04-11T17:12:20.242Z,100.00
2023-04-11T17:15:23.085Z,100.00
2023-04-11T17:18:27.109Z,100.00
2023-04-11T17:21:29.780Z,100.00
2023-04-11T17:24:32.472Z,100.00
2023-04-11T17:27:35.355Z,100.00
2023-04-11T17:30:38.089Z,100.00
2023-04-11T17:33:42.505Z,100.00
2023-04-11T17:36:45.961Z,100.00
2023-04-11T17:39:49.723Z,100.00
2023-04-11T17:42:52.391Z,100.00
2023-04-11T17:45:55.952Z,100.00
2023-04-11T17:48:59.944Z,100.00
2023-04-11T17:52:02.896Z,100.00
2023-04-11T17:55:06.467Z,100.00
2023-04-11T17:58:09.280Z,100.00
2023-04-11T18:01:12.054Z,100.00
2023-04-11T18:04:16.530Z,100.00
2023-04-11T18:07:24.223Z,100.00
2023-04-11T18:10:28.168Z,100.00
2023-04-11T18:13:31.473Z,100.00
2023-04-11T18:16:34.694Z,100.00
2023-04-11T18:19:38.882Z,100.00
2023-04-11T18:22:44.248Z,100.00
2023-04-11T18:25:46.904Z,100.00
2023-04-11T18:28:49.538Z,100.00
2023-04-11T18:31:52.276Z,100.00
2023-04-11T18:34:56.395Z,100.00
2023-04-11T18:37:59.875Z,100.00
2023-04-11T18:41:06.442Z,100.00
2023-04-11T18:44:11.469Z,100.00
2023-04-11T18:47:18.027Z,100.00
2023-04-11T18:50:22.906Z,100.00
2023-04-11T18:53:26.027Z,100.00
2023-04-11T18:56:28.678Z,100.00
2023-04-11T18:59:34.335Z,100.00
2023-04-11T19:02:40.081Z,100.00
2023-04-11T19:05:45.245Z,100.00
2023-04-11T19:08:48.085Z,100.00
2023-04-11T19:11:50.799Z,100.00
2023-04-11T19:14:53.484Z,100.00
2023-04-11T19:17:57.323Z,100.00
2023-04-11T19:21:01.401Z,100.00
2023-04-11T19:24:04.086Z,100.00
2023-04-11T19:27:08.026Z,100.00
2023-04-11T19:30:13.333Z,100.00
2023-04-11T19:33:16.195Z,100.00
2023-04-11T19:36:20.838Z,100.00
2023-04-11T19:39:23.464Z,100.00
2023-04-11T19:42:26.192Z,100.00
2023-04-11T19:45:31.162Z,100.00
2023-04-11T19:48:34.474Z,100.00
2023-04-11T19:51:39.415Z,100.00
2023-04-11T19:54:42.065Z,100.00
2023-04-11T19:57:44.682Z,100.00
2023-04-11T20:00:47.372Z,100.00
2023-04-11T20:03:53.476Z,100.00
2023-04-11T20:06:58.465Z,100.00
2023-04-11T20:10:01.224Z,100.00
2023-04-11T20:13:03.973Z,100.00
2023-04-11T20:16:08.937Z,100.00
2023-04-11T20:19:11.582Z,100.00
2023-04-11T20:22:18.326Z,100.00
2023-04-11T20:25:21.483Z,100.00
2023-04-11T20:28:25.231Z,100.00
2023-04-11T20:31:28.106Z,100.00
2023-04-11T20:34:30.885Z,100.00
2023-04-11T20:37:35.401Z,100.00
2023-04-11T20:40:38.264Z,100.00
2023-04-11T20:43:42.403Z,100.00
2023-04-11T20:46:45.072Z,100.00
2023-04-11T20:49:49.591Z,100.00
2023-04-11T20:52:53.988Z,100.00
2023-04-11T20:55:56.664Z,100.00
2023-04-11T20:58:59.287Z,100.00
2023-04-11T21:02:02.056Z,100.00
2023-04-11T21:05:05.454Z,100.00
2023-04-11T21:08:11.211Z,100.00
2023-04-11T21:11:13.838Z,100.00
2023-04-11T21:14:16.490Z,100.00
2023-04-11T21:17:19.191Z,100.00
2023-04-11T21:20:22.621Z,100.00
2023-04-11T21:23:26.755Z,100.00
2023-04-11T21:26:29.409Z,100.00
2023-04-11T21:29:32.041Z,100.00
2023-04-11T21:32:34.847Z,100.00
2023-04-11T21:35:37.537Z,100.00
2023-04-11T21:38:41.691Z,100.00
2023-04-11T21:41:44.321Z,100.00
2023-04-11T21:44:47.003Z,100.00
2023-04-11T21:47:51.334Z,100.00
2023-04-11T21:50:54.075Z,100.00
2023-04-11T21:53:58.267Z,100.00
2023-04-11T21:57:01.059Z,100.00
2023-04-11T22:00:04.275Z,100.00
2023-04-11T22:03:07.442Z,100.00
2023-04-11T22:06:12.010Z,100.00
2023-04-11T22:09:17.918Z,100.00
2023-04-11T22:12:20.554Z,100.00
2023-04-11T22:15:23.869Z,100.00
2023-04-11T22:18:27.203Z,100.00
2023-04-11T22:21:31.853Z,100.00
2023-04-11T22:24:38.193Z,100.00
2023-04-11T22:27:40.886Z,100.00
2023-04-11T22:30:43.928Z,100.00
2023-04-11T22:33:46.630Z,100.00
2023-04-11T22:36:49.271Z,100.00
2023-04-11T22:39:53.207Z,100.00
2023-04-11T22:42:55.915Z,100.00
2023-04-11T22:45:58.657Z,100.00
2023-04-11T22:49:01.527Z,100.00
2023-04-11T22:52:04.197Z,100.00
2023-04-11T22:55:10.180Z,100.00
2023-04-11T22:58:13.768Z,100.00
2023-04-11T23:01:16.596Z,100.00
2023-04-11T23:04:20.548Z,100.00
2023-04-11T23:07:25.836Z,100.00
2023-04-11T23:10:29.891Z,100.00
2023-04-11T23:13:32.556Z,100.00
2023-04-11T23:16:35.209Z,100.00
2023-04-11T23:19:37.945Z,100.00
2023-04-11T23:22:42.142Z,100.00
2023-04-11T23:25:46.305Z,100.00
2023-04-11T23:28:49.627Z,100.00
2023-04-11T23:31:52.324Z,100.00
2023-04-11T23:34:54.993Z,100.00
2023-04-11T23:37:57.641Z,100.00
2023-04-11T23:41:01.707Z,100.00
2023-04-11T23:44:04.479Z,100.00
2023-04-11T23:47:07.197Z,100.00
2023-04-11T23:50:10.864Z,100.00
2023-04-11T23:53:13.507Z,100.00
2023-04-11T23:56:18.026Z,100.00
2023-04-11T23:59:20.669Z,100.00
